Time;durP1;ratioP1;P1;durP2;ratioP2;P2;SDS_P1;SDS_P2;PMS_P1;PMS_P2;Temp;Humidity;BMP_temperature;BMP_pressure;BME280_temperature;BME280_humidity;BME280_pressure;Samples;Min_cycle;Max_cycle;Signal;HPM_P1;HPM_P2
2021/04/29 00:02:07;;;;;;;5.50;5.10;;;15.70;70.60;;;;;;5073845;28;20250;-76
2021/04/29 00:04:33;;;;;;;6.83;6.33;;;15.40;70.70;;;;;;5073214;28;20679;-76
2021/04/29 00:06:59;;;;;;;6.57;5.97;;;15.30;71.90;;;;;;5073953;28;20428;-76
2021/04/29 00:09:24;;;;;;;6.03;5.57;;;15.30;72.70;;;;;;5072950;28;20275;-77
2021/04/29 00:11:50;;;;;;;5.40;5.00;;;15.40;72.40;;;;;;5073784;28;20243;-76
2021/04/29 00:14:17;;;;;;;5.80;5.40;;;15.50;72.50;;;;;;5073286;28;20177;-77
2021/04/29 00:16:43;;;;;;;6.30;5.80;;;15.60;72.30;;;;;;5073254;28;20186;-76
2021/04/29 00:19:09;;;;;;;6.50;6.00;;;15.60;71.60;;;;;;5073665;28;20516;-75
2021/04/29 00:21:36;;;;;;;6.13;5.73;;;15.60;71.70;;;;;;5073015;28;20798;-75
2021/04/29 00:24:03;;;;;;;5.83;5.43;;;15.40;72.50;;;;;;5064614;28;20520;-75
2021/04/29 00:26:28;;;;;;;6.33;5.87;;;15.50;72.40;;;;;;5051974;28;20488;-76
2021/04/29 00:28:54;;;;;;;5.53;5.07;;;15.50;72.10;;;;;;5053641;28;20900;-75
2021/04/29 00:31:21;;;;;;;5.87;5.10;;;15.60;72.20;;;;;;5052281;28;20173;-76
2021/04/29 00:33:47;;;;;;;7.00;6.60;;;15.60;72.40;;;;;;5053516;28;20189;-75
2021/04/29 00:36:13;;;;;;;6.70;6.30;;;15.60;72.60;;;;;;5053176;28;20431;-75
2021/04/29 00:38:39;;;;;;;6.47;6.07;;;15.60;72.60;;;;;;5052538;28;20614;-76
2021/04/29 00:41:05;;;;;;;6.50;5.93;;;15.50;72.70;;;;;;5052528;28;20211;-75
2021/04/29 00:43:32;;;;;;;5.00;4.70;;;15.40;72.60;;;;;;5052564;28;20434;-76
2021/04/29 00:45:58;;;;;;;5.67;5.20;;;15.10;73.70;;;;;;5052747;28;20931;-75
2021/04/29 00:48:24;;;;;;;6.33;5.93;;;15.20;74.00;;;;;;5035654;28;20933;-75
2021/04/29 00:50:50;;;;;;;5.50;5.00;;;15.30;73.70;;;;;;5053351;28;20406;-76
2021/04/29 00:53:17;;;;;;;5.53;5.13;;;15.30;74.00;;;;;;5052726;28;20796;-77
2021/04/29 00:55:43;;;;;;;5.87;5.50;;;15.30;73.40;;;;;;5036103;28;20504;-76
2021/04/29 00:58:09;;;;;;;5.60;5.30;;;15.30;72.60;;;;;;5035321;28;20888;-76
2021/04/29 01:00:37;;;;;;;5.80;5.30;;;15.30;72.80;;;;;;5051967;28;20923;-76
2021/04/29 01:03:11;;;;;;;4.90;4.60;;;15.10;73.30;;;;;;5052956;28;20185;-76
2021/04/29 01:05:45;;;;;;;5.60;5.10;;;15.10;73.70;;;;;;5052157;28;20424;-76
2021/04/29 01:08:14;;;;;;;5.73;5.33;;;15.10;73.50;;;;;;5052974;28;20391;-76
2021/04/29 01:10:52;;;;;;;5.97;5.47;;;15.00;73.90;;;;;;5051770;28;20931;-76
2021/04/29 01:13:27;;;;;;;5.53;5.20;;;15.10;74.00;;;;;;5052356;28;20534;-77
2021/04/29 01:15:53;;;;;;;5.93;5.53;;;15.20;73.70;;;;;;5052668;28;20438;-76
2021/04/29 01:18:22;;;;;;;5.60;5.20;;;15.10;73.60;;;;;;5052013;28;20473;-76
2021/04/29 01:21:00;;;;;;;5.90;5.30;;;15.00;73.80;;;;;;5052439;28;20986;-76
2021/04/29 01:23:35;;;;;;;5.77;5.27;;;15.00;73.60;;;;;;5051715;28;20557;-76
2021/04/29 01:26:18;;;;;;;6.37;5.87;;;15.00;74.10;;;;;;5052687;28;20387;-75
2021/04/29 01:28:47;;;;;;;5.37;5.00;;;15.00;74.00;;;;;;5052332;28;20525;-75
2021/04/29 01:31:12;;;;;;;6.57;6.07;;;14.90;74.70;;;;;;5051984;28;20426;-76
2021/04/29 01:33:39;;;;;;;5.77;5.47;;;14.90;75.10;;;;;;5051669;28;20458;-75
2021/04/29 01:36:08;;;;;;;5.63;5.23;;;14.90;75.10;;;;;;5052245;28;20192;-75
2021/04/29 01:38:35;;;;;;;6.00;5.50;;;14.80;76.00;;;;;;5051573;28;20509;-76
2021/04/29 01:41:01;;;;;;;7.30;6.80;;;14.80;75.50;;;;;;5051828;28;20435;-76
2021/04/29 01:43:27;;;;;;;5.37;5.00;;;14.70;75.50;;;;;;5051164;28;20443;-76
2021/04/29 01:45:53;;;;;;;6.10;4.93;;;14.80;75.70;;;;;;5052137;28;20423;-76
2021/04/29 01:48:20;;;;;;;6.60;6.03;;;14.90;75.20;;;;;;5051348;28;20419;-77
2021/04/29 01:50:46;;;;;;;5.80;4.87;;;14.90;75.50;;;;;;5051670;28;20427;-76
2021/04/29 01:53:12;;;;;;;4.80;4.40;;;14.90;74.90;;;;;;5051492;28;20802;-76
2021/04/29 01:55:38;;;;;;;6.47;5.97;;;15.00;75.00;;;;;;5051145;28;20420;-76
2021/04/29 01:58:04;;;;;;;5.13;4.83;;;15.00;74.50;;;;;;5052009;28;20576;-75
2021/04/29 02:00:30;;;;;;;6.03;5.50;;;14.90;74.40;;;;;;5051122;28;20452;-76
2021/04/29 02:02:59;;;;;;;5.60;5.13;;;14.90;74.90;;;;;;5052340;28;20872;-76
2021/04/29 02:05:25;;;;;;;5.57;5.00;;;15.00;75.00;;;;;;5051162;28;20182;-77
2021/04/29 02:07:50;;;;;;;5.60;5.10;;;15.00;74.80;;;;;;5034303;28;20430;-76
2021/04/29 02:10:17;;;;;;;6.13;5.67;;;15.00;74.50;;;;;;5034088;28;20181;-76
2021/04/29 02:12:48;;;;;;;4.87;4.57;;;15.10;74.30;;;;;;5033067;28;20448;-76
2021/04/29 02:15:15;;;;;;;6.20;5.70;;;15.20;74.10;;;;;;5051898;28;20443;-76
2021/04/29 02:17:55;;;;;;;5.83;5.33;;;15.20;73.80;;;;;;5051187;28;20428;-76
2021/04/29 02:20:23;;;;;;;7.03;6.53;;;15.20;74.00;;;;;;5051825;28;20778;-77
2021/04/29 02:22:50;;;;;;;5.83;5.33;;;15.20;73.80;;;;;;5051854;28;20420;-76
2021/04/29 02:25:20;;;;;;;8.00;7.50;;;15.20;73.70;;;;;;5070505;28;20460;-76
2021/04/29 02:27:46;;;;;;;6.10;5.60;;;15.20;73.70;;;;;;5071619;28;20450;-75
2021/04/29 02:30:15;;;;;;;5.57;5.17;;;15.30;73.90;;;;;;5071431;28;20422;-76
2021/04/29 02:32:41;;;;;;;6.13;5.60;;;15.30;73.40;;;;;;5071066;28;21253;-76
2021/04/29 02:35:12;;;;;;;6.33;5.83;;;15.30;73.40;;;;;;5071636;28;20823;-76
2021/04/29 02:37:38;;;;;;;5.83;5.43;;;15.30;73.50;;;;;;5070793;28;20446;-77
2021/04/29 02:40:08;;;;;;;5.50;4.80;;;15.20;73.70;;;;;;5071807;28;20498;-75
2021/04/29 02:42:34;;;;;;;5.43;5.10;;;15.20;73.30;;;;;;5070941;28;20566;-76
2021/04/29 02:45:00;;;;;;;6.40;5.90;;;15.20;73.80;;;;;;5071511;28;20449;-75
2021/04/29 02:47:26;;;;;;;6.10;5.50;;;15.20;73.80;;;;;;5070597;28;20434;-77
2021/04/29 02:49:52;;;;;;;6.03;5.53;;;15.20;73.50;;;;;;5071579;28;20411;-76
2021/04/29 02:52:18;;;;;;;5.60;5.20;;;15.20;73.50;;;;;;5071569;28;20460;-76
2021/04/29 02:54:45;;;;;;;5.73;5.23;;;15.30;73.30;;;;;;5070498;28;20340;-76
2021/04/29 02:57:19;;;;;;;5.63;5.23;;;15.30;72.90;;;;;;5070919;28;20421;-76
2021/04/29 02:59:45;;;;;;;6.07;5.57;;;15.40;72.60;;;;;;5070401;28;20437;-75
2021/04/29 03:02:11;;;;;;;5.10;4.80;;;15.40;73.00;;;;;;5071190;28;20427;-75
2021/04/29 03:04:36;;;;;;;6.43;5.93;;;15.30;72.60;;;;;;5072765;28;20673;-75
2021/04/29 03:07:02;;;;;;;6.67;6.17;;;15.30;72.70;;;;;;5075262;28;20185;-75
2021/04/29 03:09:28;;;;;;;7.83;5.77;;;15.30;72.40;;;;;;5074422;28;20579;-76
2021/04/29 03:11:54;;;;;;;6.27;5.77;;;15.20;72.00;;;;;;5074617;28;20240;-75
2021/04/29 03:14:20;;;;;;;6.87;6.17;;;15.20;72.20;;;;;;5073592;28;20213;-75
2021/04/29 03:16:45;;;;;;;6.90;6.17;;;15.20;72.20;;;;;;5072986;28;20189;-75
2021/04/29 03:19:12;;;;;;;7.30;6.60;;;15.30;72.30;;;;;;5073492;28;20181;-75
2021/04/29 03:21:37;;;;;;;7.27;6.67;;;15.40;72.50;;;;;;5072833;28;20272;-75
2021/04/29 03:24:03;;;;;;;6.97;6.33;;;15.30;72.50;;;;;;5064817;28;20895;-75
2021/04/29 03:26:29;;;;;;;7.37;6.47;;;15.30;72.00;;;;;;5054088;28;20595;-76
2021/04/29 03:28:55;;;;;;;7.60;6.90;;;15.20;71.40;;;;;;5054854;28;20423;-76
2021/04/29 03:31:20;;;;;;;7.50;6.80;;;15.20;72.30;;;;;;5054967;28;20188;-75
2021/04/29 03:33:47;;;;;;;9.60;7.97;;;15.20;72.20;;;;;;5053915;28;20259;-78
2021/04/29 03:36:12;;;;;;;10.30;9.40;;;15.20;71.90;;;;;;5054684;28;20230;-78
2021/04/29 03:38:38;;;;;;;6.53;6.00;;;15.30;72.20;;;;;;5053845;28;20891;-78
2021/04/29 03:41:04;;;;;;;7.70;7.00;;;15.30;71.80;;;;;;5054558;28;20181;-78
2021/04/29 03:43:29;;;;;;;7.90;7.27;;;15.40;71.70;;;;;;5053953;28;20186;-78
2021/04/29 03:45:55;;;;;;;7.47;6.30;;;15.40;71.50;;;;;;5054774;28;20174;-78
2021/04/29 03:48:21;;;;;;;6.70;6.20;;;15.50;71.30;;;;;;5054527;28;20347;-78
2021/04/29 03:50:47;;;;;;;8.80;8.07;;;15.50;71.10;;;;;;5053658;28;20230;-77
2021/04/29 03:53:12;;;;;;;7.60;7.00;;;15.40;70.50;;;;;;5054073;28;20213;-77
2021/04/29 03:55:38;;;;;;;8.00;7.40;;;15.40;70.50;;;;;;5053463;28;20190;-77
2021/04/29 03:58:04;;;;;;;9.40;8.70;;;15.40;70.50;;;;;;5054061;28;20639;-78
2021/04/29 04:00:29;;;;;;;8.40;7.70;;;15.50;70.70;;;;;;5035357;28;20186;-77
2021/04/29 04:02:55;;;;;;;7.20;6.60;;;15.50;70.40;;;;;;5036460;28;20212;-78
2021/04/29 04:05:21;;;;;;;8.93;8.23;;;15.40;70.40;;;;;;5036415;28;20174;-79
2021/04/29 04:07:47;;;;;;;8.57;7.87;;;15.40;70.70;;;;;;5053300;28;20177;-79
2021/04/29 04:10:12;;;;;;;8.60;7.80;;;15.30;71.00;;;;;;5054042;28;20171;-79
2021/04/29 04:12:39;;;;;;;8.17;7.00;;;15.30;71.50;;;;;;5053134;28;20223;-78
2021/04/29 04:15:05;;;;;;;8.20;7.60;;;15.30;71.30;;;;;;5053177;28;20246;-78
2021/04/29 04:17:31;;;;;;;10.13;9.23;;;15.30;71.10;;;;;;5052834;28;20399;-78
2021/04/29 04:19:57;;;;;;;8.50;7.73;;;15.30;71.00;;;;;;5053729;28;20396;-78
2021/04/29 04:22:22;;;;;;;9.60;8.20;;;15.30;71.10;;;;;;5053552;28;20276;-78
2021/04/29 04:24:48;;;;;;;7.83;7.23;;;15.30;71.40;;;;;;5068186;28;20270;-78
2021/04/29 04:27:14;;;;;;;8.13;7.33;;;15.30;71.70;;;;;;5073855;28;20196;-78
2021/04/29 04:29:39;;;;;;;9.23;8.33;;;15.30;71.70;;;;;;5072440;28;20212;-78
2021/04/29 04:32:05;;;;;;;10.90;8.30;;;15.30;71.50;;;;;;5055922;28;20564;-78
2021/04/29 04:34:31;;;;;;;8.70;8.00;;;15.30;71.20;;;;;;5072620;28;20185;-78
2021/04/29 04:36:57;;;;;;;9.43;7.80;;;15.30;71.50;;;;;;5073341;28;20193;-78
2021/04/29 04:39:23;;;;;;;8.50;7.67;;;15.30;71.50;;;;;;5073592;28;20187;-79
2021/04/29 04:41:49;;;;;;;7.73;7.03;;;15.30;71.30;;;;;;5072698;28;20491;-79
2021/04/29 04:44:14;;;;;;;8.97;8.27;;;15.30;71.70;;;;;;5073530;28;20914;-79
2021/04/29 04:46:40;;;;;;;7.90;7.30;;;15.30;71.70;;;;;;5072295;28;20273;-79
2021/04/29 04:49:06;;;;;;;7.70;7.10;;;15.20;72.00;;;;;;5073048;28;20172;-79
2021/04/29 04:51:31;;;;;;;7.50;6.80;;;15.20;72.20;;;;;;5071939;28;20184;-78
2021/04/29 04:53:57;;;;;;;10.13;9.33;;;15.20;72.40;;;;;;5073111;28;20502;-79
2021/04/29 04:56:23;;;;;;;7.80;7.23;;;15.20;72.30;;;;;;5073149;28;20168;-79
2021/04/29 04:58:49;;;;;;;8.03;7.43;;;15.20;73.00;;;;;;5072328;28;20627;-78
2021/04/29 05:01:14;;;;;;;7.77;7.10;;;15.30;72.60;;;;;;5072617;28;20173;-79
2021/04/29 05:03:40;;;;;;;8.07;7.40;;;15.20;72.70;;;;;;5072529;28;20177;-78
2021/04/29 05:06:06;;;;;;;8.93;8.10;;;15.10;72.90;;;;;;5072945;28;20577;-78
2021/04/29 05:08:31;;;;;;;9.13;8.33;;;15.10;73.60;;;;;;5071985;28;20180;-78
2021/04/29 05:10:57;;;;;;;9.30;8.40;;;15.10;74.10;;;;;;5070909;28;20531;-78
2021/04/29 05:13:23;;;;;;;9.67;8.87;;;15.00;73.80;;;;;;5072924;28;20275;-78
2021/04/29 05:15:49;;;;;;;9.73;8.93;;;15.00;74.20;;;;;;5072727;28;20291;-78
2021/04/29 05:18:14;;;;;;;10.27;8.67;;;15.00;74.30;;;;;;5072901;28;20411;-78
2021/04/29 05:20:41;;;;;;;11.37;9.73;;;15.00;74.70;;;;;;5072524;28;20229;-78
2021/04/29 05:23:07;;;;;;;12.73;9.70;;;15.00;74.30;;;;;;5071414;28;20219;-78
2021/04/29 05:25:33;;;;;;;11.20;10.17;;;15.00;74.40;;;;;;5052133;28;20884;-78
2021/04/29 05:28:00;;;;;;;13.23;11.20;;;15.00;74.70;;;;;;5052143;28;20197;-78
2021/04/29 05:30:26;;;;;;;11.33;10.33;;;14.90;74.80;;;;;;5052237;28;20173;-78
2021/04/29 05:32:53;;;;;;;12.43;11.33;;;14.80;76.10;;;;;;5050101;28;20465;-81
2021/04/29 05:35:19;;;;;;;12.60;11.40;;;14.90;76.40;;;;;;5051963;28;20423;-79
2021/04/29 05:37:44;;;;;;;12.57;11.33;;;14.90;76.20;;;;;;5051873;28;20477;-78
2021/04/29 05:40:11;;;;;;;15.00;13.47;;;14.90;76.10;;;;;;5052292;28;20423;-78
2021/04/29 05:42:37;;;;;;;10.50;9.50;;;14.90;76.30;;;;;;5052126;28;20178;-80
2021/04/29 05:45:04;;;;;;;9.97;8.20;;;14.70;78.60;;;;;;5052279;28;20419;-79
2021/04/29 05:47:30;;;;;;;16.00;14.20;;;14.80;81.10;;;;;;5052980;28;20410;-80
2021/04/29 05:49:55;;;;;;;16.87;15.27;;;15.10;79.70;;;;;;5033679;28;20986;-80
2021/04/29 05:52:21;;;;;;;17.70;15.87;;;15.30;78.10;;;;;;5052494;28;20212;-78
2021/04/29 05:54:47;;;;;;;23.07;20.70;;;15.20;77.10;;;;;;5052245;28;20184;-78
2021/04/29 05:57:12;;;;;;;22.07;19.77;;;15.20;77.30;;;;;;5034692;28;20181;-78
2021/04/29 05:59:38;;;;;;;21.43;18.97;;;15.10;77.40;;;;;;5051976;28;20275;-78
2021/04/29 06:02:04;;;;;;;22.77;18.37;;;15.10;78.00;;;;;;5034559;28;20548;-78
2021/04/29 06:04:29;;;;;;;18.47;16.57;;;15.00;78.10;;;;;;5052415;28;20181;-78
2021/04/29 06:06:55;;;;;;;20.30;18.10;;;15.00;79.10;;;;;;5051878;28;20183;-79
2021/04/29 06:09:21;;;;;;;18.57;16.63;;;14.90;79.00;;;;;;5052186;28;20184;-78
2021/04/29 06:11:47;;;;;;;19.30;17.10;;;14.90;79.10;;;;;;5051818;28;20656;-78
2021/04/29 06:14:13;;;;;;;20.20;18.10;;;14.90;79.40;;;;;;5051995;28;20183;-78
2021/04/29 06:16:39;;;;;;;24.30;21.93;;;14.90;80.00;;;;;;5051985;28;20193;-79
2021/04/29 06:19:06;;;;;;;23.83;21.33;;;14.90;79.50;;;;;;5052373;28;20408;-78
2021/04/29 06:21:32;;;;;;;22.40;20.10;;;15.00;79.30;;;;;;5052180;28;20831;-78
2021/04/29 06:23:58;;;;;;;22.17;20.03;;;15.00;79.10;;;;;;5051341;28;20780;-79
2021/04/29 06:26:23;;;;;;;25.30;22.20;;;14.90;79.20;;;;;;5052208;28;20424;-78
2021/04/29 06:28:49;;;;;;;22.83;20.37;;;14.90;79.90;;;;;;5051393;28;20190;-78
2021/04/29 06:31:15;;;;;;;23.00;20.30;;;14.90;79.40;;;;;;5051975;28;20183;-78
2021/04/29 06:33:41;;;;;;;25.73;22.97;;;14.90;79.50;;;;;;5051434;28;20503;-76
2021/04/29 06:36:07;;;;;;;26.30;23.60;;;14.90;79.40;;;;;;5051555;28;20459;-78
2021/04/29 06:38:35;;;;;;;27.73;23.00;;;14.90;79.80;;;;;;5052354;28;20556;-78
2021/04/29 06:41:01;;;;;;;25.87;22.17;;;14.90;79.70;;;;;;5054270;28;20536;-77
2021/04/29 06:43:27;;;;;;;28.67;23.97;;;14.80;79.70;;;;;;5055857;28;20434;-77
2021/04/29 06:45:53;;;;;;;28.90;24.70;;;14.80;79.20;;;;;;5054127;28;20435;-77
2021/04/29 06:48:19;;;;;;;27.40;24.40;;;14.90;79.70;;;;;;5054361;28;20648;-77
2021/04/29 06:50:45;;;;;;;29.97;25.50;;;14.80;79.80;;;;;;5023497;28;20956;-78
2021/04/29 06:53:11;;;;;;;30.13;25.50;;;14.90;79.90;;;;;;5055611;28;20447;-76
2021/04/29 06:55:37;;;;;;;31.27;25.90;;;14.90;80.50;;;;;;5054538;28;20690;-79
2021/04/29 06:58:03;;;;;;;29.87;25.30;;;14.90;80.50;;;;;;5054217;28;20181;-78
2021/04/29 07:00:29;;;;;;;34.07;26.90;;;14.90;79.60;;;;;;5055335;28;20418;-76
2021/04/29 07:02:59;;;;;;;35.90;30.27;;;15.00;80.20;;;;;;5054072;28;20397;-77
2021/04/29 07:05:26;;;;;;;33.40;29.80;;;15.00;79.50;;;;;;5051351;28;21005;-77
2021/04/29 07:07:55;;;;;;;36.83;31.80;;;15.00;79.20;;;;;;5054457;28;20416;-77
2021/04/29 07:10:23;;;;;;;35.83;31.40;;;15.00;78.40;;;;;;5055143;28;20445;-77
2021/04/29 07:12:49;;;;;;;36.43;31.20;;;14.90;78.60;;;;;;5053819;28;20447;-77
2021/04/29 07:15:15;;;;;;;37.70;32.83;;;14.90;78.10;;;;;;5044235;28;20965;-77
2021/04/29 07:17:42;;;;;;;42.63;37.00;;;14.90;78.00;;;;;;5054103;28;20431;-80
2021/04/29 07:20:09;;;;;;;41.60;33.13;;;14.80;77.80;;;;;;5054121;28;20419;-78
2021/04/29 07:22:35;;;;;;;40.07;34.30;;;14.80;78.70;;;;;;5054549;28;20420;-77
2021/04/29 07:25:01;;;;;;;42.90;36.67;;;14.80;78.10;;;;;;5071675;28;20453;-77
2021/04/29 07:27:27;;;;;;;46.10;38.07;;;14.90;77.70;;;;;;5074086;28;20420;-76
2021/04/29 07:29:53;;;;;;;43.40;38.40;;;14.90;77.50;;;;;;5074445;28;20542;-77
2021/04/29 07:32:18;;;;;;;43.83;39.17;;;15.00;77.30;;;;;;5074868;28;20200;-76
2021/04/29 07:34:44;;;;;;;46.03;39.83;;;15.00;77.00;;;;;;5074487;28;20417;-76
2021/04/29 07:37:10;;;;;;;45.80;37.90;;;15.00;77.10;;;;;;5074998;28;20192;-77
2021/04/29 07:39:36;;;;;;;44.20;38.37;;;15.10;77.20;;;;;;5075091;28;20177;-78
2021/04/29 07:42:02;;;;;;;45.27;40.17;;;15.20;76.90;;;;;;5074442;28;20402;-78
2021/04/29 07:44:28;;;;;;;45.60;38.23;;;15.30;76.10;;;;;;5074395;28;20818;-77
2021/04/29 07:46:53;;;;;;;46.53;38.53;;;15.30;75.90;;;;;;5072970;28;20431;-78
2021/04/29 07:49:19;;;;;;;47.77;40.50;;;15.40;76.70;;;;;;5074556;28;20259;-78
2021/04/29 07:51:45;;;;;;;44.60;38.37;;;15.50;76.50;;;;;;5072755;28;20685;-78
2021/04/29 07:54:14;;;;;;;45.70;40.43;;;15.50;76.20;;;;;;5074330;28;20194;-78
2021/04/29 07:56:41;;;;;;;47.27;40.33;;;15.50;75.20;;;;;;5073153;28;20180;-80
2021/04/29 07:59:06;;;;;;;43.40;38.57;;;15.60;75.40;;;;;;5074953;28;20455;-77
2021/04/29 08:01:32;;;;;;;46.43;39.33;;;15.70;75.80;;;;;;5074835;28;20828;-77
2021/04/29 08:04:01;;;;;;;42.87;38.27;;;15.80;75.70;;;;;;5073992;28;20184;-77
2021/04/29 08:06:27;;;;;;;42.90;36.70;;;15.80;73.50;;;;;;5074154;28;20753;-78
2021/04/29 08:08:53;;;;;;;46.17;38.97;;;16.00;75.50;;;;;;5073914;28;20397;-78
2021/04/29 08:11:19;;;;;;;49.70;44.27;;;16.00;73.40;;;;;;5066558;28;20426;-78
2021/04/29 08:13:44;;;;;;;54.07;45.60;;;16.00;71.90;;;;;;5070224;28;20206;-78
2021/04/29 08:16:10;;;;;;;52.40;40.73;;;16.10;73.40;;;;;;5073986;28;20655;-78
2021/04/29 08:18:37;;;;;;;55.40;44.07;;;16.10;72.40;;;;;;5074837;28;20262;-78
2021/04/29 08:21:04;;;;;;;50.27;41.37;;;16.10;72.00;;;;;;5075416;28;20768;-78
2021/04/29 08:23:30;;;;;;;48.47;40.73;;;16.00;72.60;;;;;;5056260;28;20449;-78
2021/04/29 08:25:56;;;;;;;51.57;42.50;;;15.90;72.20;;;;;;5072906;28;20505;-77
2021/04/29 08:28:22;;;;;;;48.27;43.07;;;15.90;73.20;;;;;;5073759;28;20568;-76
2021/04/29 08:30:47;;;;;;;55.63;45.40;;;15.90;74.00;;;;;;5072766;28;20426;-78
2021/04/29 08:33:13;;;;;;;53.23;45.10;;;15.80;72.40;;;;;;5071854;28;20691;-76
2021/04/29 08:35:39;;;;;;;53.33;44.40;;;15.70;73.60;;;;;;5073825;28;20181;-77
2021/04/29 08:38:04;;;;;;;59.90;48.30;;;15.60;73.50;;;;;;5073041;28;20268;-76
2021/04/29 08:40:30;;;;;;;55.60;47.33;;;15.60;73.90;;;;;;5073927;28;20183;-78
2021/04/29 08:42:57;;;;;;;51.33;43.60;;;15.50;74.40;;;;;;5072443;28;20590;-76
2021/04/29 08:45:23;;;;;;;50.17;44.47;;;15.50;74.90;;;;;;5072899;28;20267;-77
2021/04/29 08:47:51;;;;;;;51.63;43.40;;;15.50;75.60;;;;;;5069049;28;20909;-78
2021/04/29 08:50:18;;;;;;;48.43;41.67;;;15.50;75.50;;;;;;5073264;28;20408;-77
2021/04/29 08:52:44;;;;;;;49.80;42.97;;;15.60;75.50;;;;;;5071610;28;20463;-79
2021/04/29 08:55:22;;;;;;;49.07;41.73;;;15.60;76.40;;;;;;5073119;28;20413;-77
2021/04/29 08:57:48;;;;;;;51.90;43.43;;;15.50;74.20;;;;;;5073057;28;20214;-77
2021/04/29 09:00:16;;;;;;;49.57;42.40;;;15.50;74.80;;;;;;5073466;28;20435;-77
2021/04/29 09:02:42;;;;;;;49.83;43.47;;;15.40;75.00;;;;;;5072823;28;20500;-77
2021/04/29 09:05:15;;;;;;;54.40;44.87;;;15.30;75.50;;;;;;5072778;28;20400;-77
2021/04/29 09:08:05;;;;;;;52.47;42.77;;;15.30;75.40;;;;;;5073322;28;20398;-77
2021/04/29 09:10:32;;;;;;;53.63;41.33;;;15.30;76.10;;;;;;5073356;28;20426;-76
2021/04/29 09:12:59;;;;;;;48.40;40.10;;;15.30;77.40;;;;;;5071275;28;20964;-77
2021/04/29 09:15:30;;;;;;;45.30;38.27;;;15.40;76.50;;;;;;5073206;28;20438;-77
2021/04/29 09:18:11;;;;;;;42.47;35.20;;;15.60;74.00;;;;;;5072597;28;20396;-77
2021/04/29 09:20:47;;;;;;;40.10;33.13;;;15.80;71.30;;;;;;5073242;28;20392;-77
2021/04/29 09:23:17;;;;;;;44.00;32.47;;;16.00;69.50;;;;;;5070304;28;20900;-77
2021/04/29 09:25:52;;;;;;;39.50;35.17;;;16.10;69.30;;;;;;5053074;28;20470;-77
2021/04/29 09:28:17;;;;;;;39.30;35.10;;;16.30;69.60;;;;;;5053229;28;20861;-77
2021/04/29 09:30:43;;;;;;;43.93;35.50;;;16.40;67.50;;;;;;5052872;28;20412;-76
2021/04/29 09:33:09;;;;;;;40.30;35.77;;;16.60;66.90;;;;;;5052163;28;20567;-76
2021/04/29 09:35:38;;;;;;;40.43;34.57;;;16.70;65.50;;;;;;5053068;28;20193;-77
2021/04/29 09:38:12;;;;;;;37.77;33.77;;;16.70;64.50;;;;;;5052189;28;20197;-77
2021/04/29 09:40:43;;;;;;;39.13;33.70;;;16.70;65.30;;;;;;5052890;28;20485;-77
2021/04/29 09:43:09;;;;;;;35.63;29.80;;;16.70;65.20;;;;;;5051897;28;20414;-77
2021/04/29 09:45:36;;;;;;;33.47;29.83;;;16.70;64.40;;;;;;5052567;28;20771;-77
2021/04/29 09:48:07;;;;;;;29.67;26.53;;;16.80;64.10;;;;;;5034060;28;20671;-77
2021/04/29 09:50:41;;;;;;;30.40;27.17;;;16.90;62.60;;;;;;5034810;28;20410;-77
2021/04/29 09:53:16;;;;;;;31.47;26.80;;;17.10;61.40;;;;;;5052031;28;20452;-77
2021/04/29 09:55:45;;;;;;;32.40;26.07;;;17.30;61.10;;;;;;5034935;28;20506;-77
2021/04/29 09:58:16;;;;;;;33.33;27.40;;;17.60;63.30;;;;;;5033836;28;20420;-77
2021/04/29 10:00:47;;;;;;;30.50;27.20;;;17.80;61.70;;;;;;5052150;28;20421;-78
2021/04/29 10:03:14;;;;;;;31.93;27.00;;;17.80;60.50;;;;;;5052003;28;20499;-78
2021/04/29 10:05:41;;;;;;;28.57;25.33;;;17.80;59.50;;;;;;5035030;28;20415;-78
2021/04/29 10:08:14;;;;;;;32.50;25.37;;;17.90;59.40;;;;;;5051578;28;20538;-78
2021/04/29 10:10:47;;;;;;;28.87;24.87;;;17.90;59.00;;;;;;5052500;28;20396;-77
2021/04/29 10:13:13;;;;;;;34.33;25.30;;;17.80;59.50;;;;;;5052505;28;20440;-77
2021/04/29 10:15:42;;;;;;;30.37;26.40;;;17.80;59.70;;;;;;5056646;28;20502;-77
2021/04/29 10:18:13;;;;;;;27.10;23.60;;;17.70;58.50;;;;;;5055931;28;20409;-78
2021/04/29 10:20:50;;;;;;;25.07;22.43;;;17.40;58.60;;;;;;5056474;28;20427;-77
2021/04/29 10:23:19;;;;;;;29.93;23.90;;;17.30;58.60;;;;;;5056137;28;20478;-77
2021/04/29 10:25:53;;;;;;;27.43;23.50;;;17.20;58.50;;;;;;5056459;28;20493;-77
2021/04/29 10:28:34;;;;;;;24.17;21.47;;;17.10;58.50;;;;;;5056237;28;20752;-77
2021/04/29 10:31:24;;;;;;;24.37;20.63;;;17.00;58.00;;;;;;5055678;28;20418;-78
2021/04/29 10:33:51;;;;;;;23.37;20.97;;;17.10;58.00;;;;;;5037842;28;20448;-78
2021/04/29 10:36:17;;;;;;;20.53;18.43;;;17.20;56.50;;;;;;5056459;28;20469;-77
2021/04/29 10:38:43;;;;;;;20.43;18.40;;;17.30;56.10;;;;;;5056206;28;20397;-78
2021/04/29 10:41:24;;;;;;;23.20;19.80;;;17.60;57.10;;;;;;5037704;28;20408;-78
2021/04/29 10:43:52;;;;;;;20.67;17.40;;;17.80;57.50;;;;;;5055524;28;20400;-79
2021/04/29 10:46:34;;;;;;;23.03;20.33;;;18.00;57.10;;;;;;5037888;28;20413;-78
2021/04/29 10:49:03;;;;;;;21.63;19.00;;;18.10;57.30;;;;;;5055407;28;20384;-78
2021/04/29 10:51:33;;;;;;;19.40;17.40;;;18.30;56.80;;;;;;5055798;28;20408;-78
2021/04/29 10:54:20;;;;;;;17.40;15.70;;;18.40;54.20;;;;;;5055583;28;20416;-78
2021/04/29 10:57:08;;;;;;;19.40;17.37;;;18.70;55.90;;;;;;5055532;28;20404;-78
2021/04/29 10:59:54;;;;;;;20.87;18.63;;;18.80;54.50;;;;;;5055533;28;20756;-78
2021/04/29 11:02:32;;;;;;;21.03;18.97;;;18.80;55.00;;;;;;5055446;28;20915;-78
2021/04/29 11:04:58;;;;;;;23.23;20.63;;;18.90;55.30;;;;;;5055133;28;20503;-79
2021/04/29 11:07:26;;;;;;;23.10;20.80;;;19.10;55.90;;;;;;5055543;28;20408;-78
2021/04/29 11:10:05;;;;;;;24.40;21.90;;;19.10;55.90;;;;;;5054899;28;20507;-79
2021/04/29 11:12:52;;;;;;;23.33;21.03;;;19.10;55.50;;;;;;5055377;28;20450;-78
2021/04/29 11:15:40;;;;;;;21.53;19.43;;;19.10;54.10;;;;;;5055519;28;20424;-78
2021/04/29 11:18:10;;;;;;;21.93;19.83;;;19.10;53.60;;;;;;5054578;28;20403;-78
2021/04/29 11:20:46;;;;;;;22.83;20.70;;;19.20;54.10;;;;;;5055352;28;20416;-78
2021/04/29 11:23:13;;;;;;;25.33;20.20;;;19.30;54.60;;;;;;5054545;28;20915;-78
2021/04/29 11:25:39;;;;;;;20.57;18.60;;;19.40;54.50;;;;;;5054873;28;20399;-78
2021/04/29 11:28:06;;;;;;;20.10;17.70;;;19.60;55.70;;;;;;5054903;28;20841;-78
2021/04/29 11:30:32;;;;;;;17.47;15.77;;;19.60;52.10;;;;;;5055107;28;20771;-78
2021/04/29 11:33:04;;;;;;;19.53;17.53;;;19.70;53.10;;;;;;5054490;28;20459;-78
2021/04/29 11:35:33;;;;;;;18.97;16.97;;;19.70;52.10;;;;;;5055467;28;20462;-78
2021/04/29 11:38:00;;;;;;;19.70;18.00;;;19.70;52.70;;;;;;5054423;28;20400;-78
2021/04/29 11:40:29;;;;;;;18.10;16.40;;;19.80;52.20;;;;;;5054999;28;20432;-78
2021/04/29 11:42:57;;;;;;;17.70;15.80;;;19.90;51.50;;;;;;5019906;28;20432;-79
2021/04/29 11:45:32;;;;;;;18.23;16.47;;;19.90;53.10;;;;;;5054276;28;20440;-78
2021/04/29 11:48:01;;;;;;;18.60;16.90;;;19.70;49.70;;;;;;5054046;28;20426;-79
2021/04/29 11:50:31;;;;;;;18.60;16.80;;;19.70;51.70;;;;;;5054718;28;20408;-78
2021/04/29 11:53:11;;;;;;;27.87;18.33;;;19.60;50.40;;;;;;5053717;28;20939;-80
2021/04/29 11:55:43;;;;;;;19.70;17.90;;;19.40;50.00;;;;;;5036996;28;20396;-78
2021/04/29 11:58:17;;;;;;;20.47;18.40;;;19.10;50.70;;;;;;5053949;28;20756;-78
2021/04/29 12:00:52;;;;;;;22.03;19.87;;;18.70;52.10;;;;;;5054802;28;20786;-78
2021/04/29 12:03:20;;;;;;;19.50;17.70;;;18.10;56.10;;;;;;5054361;28;20411;-77
2021/04/29 12:05:48;;;;;;;19.87;17.77;;;17.50;58.90;;;;;;5036817;28;20404;-78
2021/04/29 12:08:25;;;;;;;19.30;17.40;;;17.20;62.60;;;;;;5054148;28;20460;-78
2021/04/29 12:10:56;;;;;;;17.07;15.27;;;16.80;66.20;;;;;;5054315;28;20403;-77
2021/04/29 12:13:32;;;;;;;16.50;14.80;;;16.60;67.70;;;;;;5054457;28;20478;-77
2021/04/29 12:16:00;;;;;;;18.47;15.37;;;16.40;68.60;;;;;;5053459;28;20513;-78
2021/04/29 12:18:27;;;;;;;16.37;14.67;;;16.20;72.20;;;;;;5054252;28;20420;-78
2021/04/29 12:20:53;;;;;;;18.33;15.53;;;16.20;73.20;;;;;;5054260;28;20495;-78
2021/04/29 12:23:20;;;;;;;13.80;12.50;;;16.20;75.70;;;;;;5053276;28;20868;-77
2021/04/29 12:26:00;;;;;;;15.23;13.60;;;16.30;72.50;;;;;;5054228;28;20401;-77
2021/04/29 12:28:35;;;;;;;14.40;13.07;;;16.40;74.50;;;;;;5054179;28;20426;-78
2021/04/29 12:31:18;;;;;;;12.80;11.60;;;16.50;74.50;;;;;;5053590;28;20394;-76
2021/04/29 12:34:03;;;;;;;9.67;8.77;;;16.60;72.90;;;;;;5054121;28;20447;-76
2021/04/29 12:36:47;;;;;;;10.13;9.23;;;16.60;67.20;;;;;;5052999;28;20403;-77
2021/04/29 12:39:14;;;;;;;11.40;10.20;;;16.70;67.10;;;;;;5053326;28;20391;-77
2021/04/29 12:41:42;;;;;;;10.40;9.40;;;16.80;67.20;;;;;;5053995;28;20457;-77